Time;durP1;ratioP1;P1;durP2;ratioP2;P2;SDS_P1;SDS_P2;PMS_P1;PMS_P2;Temp;Humidity;BMP_temperature;BMP_pressure;BME280_temperature;BME280_humidity;BME280_pressure;Samples;Min_cycle;Max_cycle;Signal;HPM_P1;HPM_P2
2022/08/06 00:00:00;;;;;;;6.30;4.22;;;18.10;99.90;;;;;;8249472;28;20113;-81
2022/08/06 00:04:00;;;;;;;6.25;4.05;;;18.00;99.90;;;;;;8249412;28;20022;-81
2022/08/06 00:08:01;;;;;;;7.53;5.00;;;17.80;99.90;;;;;;8248815;28;20445;-81
2022/08/06 00:12:03;;;;;;;6.97;4.60;;;17.70;99.90;;;;;;8267073;28;20158;-81
2022/08/06 00:16:04;;;;;;;3.92;3.38;;;17.70;99.90;;;;;;8249596;28;20030;-81
2022/08/06 00:20:06;;;;;;;7.18;4.03;;;17.90;99.90;;;;;;8248325;28;20029;-81
2022/08/06 00:24:07;;;;;;;5.32;4.22;;;18.00;99.90;;;;;;8266277;28;20038;-81
2022/08/06 00:28:08;;;;;;;4.82;3.75;;;17.80;99.90;;;;;;8248268;28;20041;-81
2022/08/06 00:32:08;;;;;;;7.57;4.50;;;17.70;99.90;;;;;;8249566;28;20552;-81
2022/08/06 00:36:09;;;;;;;4.70;3.65;;;17.60;99.90;;;;;;8249028;28;20038;-81
2022/08/06 00:40:10;;;;;;;4.72;3.47;;;17.60;99.90;;;;;;8249736;28;20029;-80
2022/08/06 00:44:11;;;;;;;6.35;3.90;;;17.80;99.90;;;;;;8267738;28;20054;-81
2022/08/06 00:48:13;;;;;;;6.60;4.60;;;17.70;99.90;;;;;;8266305;28;20041;-81
2022/08/06 00:52:14;;;;;;;6.43;4.45;;;17.60;99.90;;;;;;8249453;28;20128;-81
2022/08/06 00:56:14;;;;;;;5.20;4.22;;;17.40;99.90;;;;;;8243814;28;20109;-81
2022/08/06 01:00:15;;;;;;;5.45;4.63;;;17.30;99.90;;;;;;8249350;28;20513;-81
2022/08/06 01:04:16;;;;;;;5.78;4.47;;;17.30;99.90;;;;;;8248915;28;20027;-82
2022/08/06 01:08:16;;;;;;;5.50;4.70;;;17.40;99.90;;;;;;8249160;28;20030;-81
2022/08/06 01:12:17;;;;;;;8.82;5.35;;;17.60;99.90;;;;;;8249175;28;20026;-80
2022/08/06 01:16:27;;;;;;;7.53;4.75;;;17.50;99.90;;;;;;8249094;28;20030;-80
2022/08/06 01:20:46;;;;;;;4.90;3.97;;;17.50;99.90;;;;;;8249884;28;20022;-81
2022/08/06 01:25:03;;;;;;;5.80;4.28;;;17.70;99.90;;;;;;8265011;28;20049;-82
2022/08/06 01:29:17;;;;;;;6.50;3.88;;;17.70;99.90;;;;;;8266737;28;20610;-82
2022/08/06 01:33:30;;;;;;;6.30;4.57;;;17.50;99.90;;;;;;8262647;28;20434;-81
2022/08/06 01:37:35;;;;;;;5.95;4.10;;;17.30;99.90;;;;;;8247811;28;20026;-82
2022/08/06 01:41:45;;;;;;;6.45;3.85;;;17.50;99.90;;;;;;8248060;28;20019;-81
2022/08/06 01:45:46;;;;;;;4.50;4.10;;;17.70;99.90;;;;;;8247281;28;20018;-80
2022/08/06 01:49:53;;;;;;;7.80;4.30;;;18.00;99.90;;;;;;8248448;28;20026;-81
2022/08/06 01:53:55;;;;;;;6.25;4.63;;;17.80;99.90;;;;;;8248682;28;20094;-81
2022/08/06 01:57:59;;;;;;;4.88;4.35;;;17.60;99.90;;;;;;8265343;28;20117;-82
2022/08/06 02:02:05;;;;;;;7.07;3.80;;;17.80;99.90;;;;;;8247481;28;20054;-80
2022/08/06 02:06:07;;;;;;;4.97;4.07;;;17.90;99.90;;;;;;8265167;28;20121;-82
2022/08/06 02:10:10;;;;;;;6.20;3.97;;;17.80;99.90;;;;;;8247925;28;20034;-81
2022/08/06 02:14:14;;;;;;;6.40;4.22;;;17.70;99.90;;;;;;8265034;28;20038;-81
2022/08/06 02:18:16;;;;;;;8.93;6.35;;;17.60;99.90;;;;;;8246538;28;20046;-81
2022/08/06 02:22:18;;;;;;;9.50;7.40;;;17.50;99.90;;;;;;8250431;28;20022;-80
2022/08/06 02:26:22;;;;;;;9.27;7.10;;;17.50;99.90;;;;;;8253667;28;20023;-81
2022/08/06 02:30:24;;;;;;;8.63;6.07;;;17.50;99.90;;;;;;8270145;28;20026;-79
2022/08/06 02:34:24;;;;;;;7.20;5.63;;;17.30;99.90;;;;;;8269863;28;20022;-79
2022/08/06 02:38:36;;;;;;;6.07;4.40;;;16.40;99.90;;;;;;8252864;28;20200;-83
2022/08/06 02:42:47;;;;;;;9.35;4.78;;;15.80;99.90;;;;;;8269023;28;20142;-82
2022/08/06 02:47:01;;;;;;;10.00;5.75;;;15.60;99.90;;;;;;8252429;28;20082;-83
2022/08/06 02:51:15;;;;;;;6.40;5.38;;;15.40;99.90;;;;;;8282647;28;20506;-83
2022/08/06 02:55:18;;;;;;;8.88;6.00;;;15.30;99.90;;;;;;8263841;28;20018;-84
2022/08/06 02:59:24;;;;;;;10.38;5.55;;;15.30;99.90;;;;;;8252897;28;20030;-84
2022/08/06 03:03:25;;;;;;;7.68;5.43;;;15.30;99.90;;;;;;8279383;28;20029;-85
2022/08/06 03:07:29;;;;;;;9.48;6.10;;;15.30;99.90;;;;;;8272185;28;20052;-84
2022/08/06 03:11:34;;;;;;;6.93;5.20;;;15.30;99.90;;;;;;8252502;28;20026;-84
2022/08/06 03:15:35;;;;;;;8.48;6.22;;;15.30;99.90;;;;;;8251849;28;20022;-84
2022/08/06 03:19:38;;;;;;;8.50;5.25;;;15.30;99.90;;;;;;8269384;28;20029;-84
2022/08/06 03:23:40;;;;;;;9.57;6.93;;;15.40;99.90;;;;;;8252251;28;20019;-84
2022/08/06 03:27:41;;;;;;;10.63;6.38;;;15.30;99.90;;;;;;8250678;28;20030;-84
2022/08/06 03:31:42;;;;;;;11.68;7.25;;;15.30;99.90;;;;;;8268928;28;20069;-84
2022/08/06 03:35:44;;;;;;;8.93;5.65;;;15.30;99.90;;;;;;8249667;28;20023;-83
2022/08/06 03:39:46;;;;;;;11.57;6.22;;;15.20;99.90;;;;;;8268507;28;20038;-84
2022/08/06 03:43:47;;;;;;;9.30;6.22;;;15.20;99.90;;;;;;8249960;28;20023;-84
2022/08/06 03:47:53;;;;;;;9.30;6.82;;;15.20;99.90;;;;;;8267752;28;20026;-83
2022/08/06 03:51:56;;;;;;;13.27;7.18;;;15.20;99.90;;;;;;8250680;28;20042;-84
2022/08/06 03:55:58;;;;;;;9.38;6.78;;;15.20;99.90;;;;;;8267909;28;20109;-83
2022/08/06 04:00:01;;;;;;;9.48;6.63;;;15.20;99.90;;;;;;8249244;28;20516;-83
2022/08/06 04:04:02;;;;;;;9.68;6.28;;;15.20;99.90;;;;;;8250562;28;20046;-83
2022/08/06 04:08:04;;;;;;;8.30;6.65;;;15.20;99.90;;;;;;8249798;28;20076;-83
2022/08/06 04:12:05;;;;;;;8.00;6.05;;;15.20;99.90;;;;;;8268104;28;20033;-83
2022/08/06 04:16:07;;;;;;;9.35;6.78;;;15.10;99.90;;;;;;8259000;28;20022;-83
2022/08/06 04:20:11;;;;;;;8.55;6.13;;;15.00;99.90;;;;;;8266189;28;20101;-82
2022/08/06 04:24:12;;;;;;;9.15;5.45;;;15.20;99.90;;;;;;8249984;28;20050;-82
2022/08/06 04:28:14;;;;;;;11.00;6.70;;;15.10;99.90;;;;;;8274367;28;20049;-83
2022/08/06 04:32:16;;;;;;;8.02;6.47;;;15.10;99.90;;;;;;8250000;28;20571;-82
2022/08/06 04:36:17;;;;;;;9.77;6.18;;;15.10;99.90;;;;;;8249401;28;20367;-83
2022/08/06 04:40:18;;;;;;;7.47;5.60;;;15.00;99.90;;;;;;8249805;28;20023;-83
2022/08/06 04:44:19;;;;;;;8.27;5.93;;;15.00;99.90;;;;;;8246930;28;20023;-82
2022/08/06 04:48:20;;;;;;;9.32;6.38;;;15.10;99.90;;;;;;8248645;28;20113;-83
2022/08/06 04:52:26;;;;;;;9.63;7.47;;;15.10;99.90;;;;;;8248650;28;20045;-82
2022/08/06 04:56:26;;;;;;;9.43;5.97;;;15.10;99.90;;;;;;8246637;28;20113;-82
2022/08/06 05:00:27;;;;;;;7.53;5.78;;;15.10;99.90;;;;;;8245690;28;20030;-83
2022/08/06 05:04:29;;;;;;;11.00;6.10;;;15.20;99.90;;;;;;8244646;28;20026;-82
2022/08/06 05:08:33;;;;;;;7.88;5.63;;;15.10;99.90;;;;;;8247679;28;20147;-82
2022/08/06 05:12:39;;;;;;;10.85;6.00;;;15.20;99.90;;;;;;8247804;28;20084;-82
2022/08/06 05:16:44;;;;;;;8.80;6.10;;;15.20;99.90;;;;;;8263070;28;20030;-83
2022/08/06 05:20:52;;;;;;;8.70;5.90;;;15.20;99.90;;;;;;8261935;28;20027;-81
2022/08/06 05:24:53;;;;;;;6.82;4.97;;;15.20;99.90;;;;;;8264995;28;20018;-82
2022/08/06 05:28:54;;;;;;;7.68;6.07;;;15.20;99.90;;;;;;8246849;28;20080;-81
2022/08/06 05:32:55;;;;;;;8.75;5.28;;;15.20;99.90;;;;;;8248108;28;20022;-83
2022/08/06 05:36:55;;;;;;;7.25;5.85;;;15.30;99.90;;;;;;8265286;28;20029;-82
2022/08/06 05:40:56;;;;;;;7.28;5.53;;;15.20;99.90;;;;;;8246070;28;20038;-81
2022/08/06 05:44:56;;;;;;;7.50;5.47;;;15.30;99.90;;;;;;8247602;28;20019;-83
2022/08/06 05:49:06;;;;;;;9.75;5.68;;;15.30;99.90;;;;;;8265593;28;20030;-82
2022/08/06 05:53:12;;;;;;;6.32;5.47;;;15.20;99.90;;;;;;8247840;28;20389;-82
2022/08/06 05:57:19;;;;;;;7.07;5.38;;;15.30;99.90;;;;;;8240147;28;20431;-83
2022/08/06 06:01:20;;;;;;;8.15;5.60;;;15.20;99.90;;;;;;8263929;28;20065;-83
2022/08/06 06:05:22;;;;;;;7.10;5.13;;;15.20;99.90;;;;;;8264016;28;20031;-83
2022/08/06 06:09:23;;;;;;;7.00;5.78;;;15.20;99.90;;;;;;8264761;28;20033;-83
2022/08/06 06:13:24;;;;;;;6.63;5.00;;;15.10;99.90;;;;;;8246558;28;20031;-82
2022/08/06 06:17:48;;;;;;;6.72;5.80;;;15.20;99.90;;;;;;8263129;28;20072;-82
2022/08/06 06:22:08;;;;;;;6.88;4.50;;;15.10;99.90;;;;;;8264845;28;20321;-82
2022/08/06 06:26:14;;;;;;;9.25;6.88;;;15.00;99.90;;;;;;8244444;28;20074;-82
2022/08/06 06:30:48;;;;;;;6.97;5.38;;;14.90;99.90;;;;;;8260775;28;20034;-81
2022/08/06 06:35:02;;;;;;;11.32;5.85;;;15.00;99.90;;;;;;8256940;28;20038;-83
2022/08/06 06:39:18;;;;;;;9.10;6.47;;;15.00;99.90;;;;;;8239259;28;20084;-82
2022/08/06 06:43:44;;;;;;;7.03;5.93;;;15.00;99.90;;;;;;8261680;28;20033;-83
2022/08/06 06:48:26;;;;;;;7.82;6.78;;;15.20;99.90;;;;;;8242266;28;20034;-82
2022/08/06 06:52:40;;;;;;;13.07;7.53;;;15.10;99.90;;;;;;8241941;28;20518;-83
2022/08/06 06:56:44;;;;;;;11.70;7.65;;;14.90;99.90;;;;;;8239228;28;20089;-82
2022/08/06 07:00:44;;;;;;;9.25;7.18;;;15.00;99.90;;;;;;8258479;28;20445;-82
2022/08/06 07:04:47;;;;;;;10.27;6.13;;;15.10;99.90;;;;;;8241850;28;20023;-83
2022/08/06 07:08:50;;;;;;;8.50;6.70;;;15.00;99.90;;;;;;8247258;28;20030;-84
2022/08/06 07:12:53;;;;;;;11.02;7.18;;;15.00;99.90;;;;;;8264315;28;20022;-88
2022/08/06 07:16:56;;;;;;;9.00;6.53;;;14.90;99.90;;;;;;8264115;28;20038;-89
2022/08/06 07:20:58;;;;;;;8.43;6.65;;;15.00;99.90;;;;;;8246525;28;20687;-88
2022/08/06 07:25:01;;;;;;;10.60;7.10;;;15.10;99.90;;;;;;8245131;28;20105;-89
2022/08/06 07:29:02;;;;;;;8.77;7.47;;;15.40;99.90;;;;;;8262834;28;20046;-88
2022/08/06 07:33:04;;;;;;;7.55;5.90;;;15.50;99.90;;;;;;8246062;28;20037;-89
2022/08/06 07:37:05;;;;;;;14.18;8.30;;;15.50;99.90;;;;;;8263457;28;20044;-89
2022/08/06 07:41:08;;;;;;;12.27;7.78;;;15.30;99.90;;;;;;8246183;28;20160;-86
2022/08/06 07:45:11;;;;;;;9.75;7.30;;;15.40;99.90;;;;;;8247277;28;20023;-85
2022/08/06 07:49:12;;;;;;;8.55;7.10;;;15.50;99.90;;;;;;8245085;28;20030;-85
2022/08/06 07:53:14;;;;;;;9.98;7.00;;;15.50;99.90;;;;;;8246705;28;20490;-86
2022/08/06 07:57:16;;;;;;;8.02;7.15;;;15.60;99.90;;;;;;8261726;28;20080;-86
2022/08/06 08:01:18;;;;;;;8.95;7.00;;;15.70;99.90;;;;;;8247297;28;20169;-86
2022/08/06 08:09:38;;;;;;;12.23;7.20;;;16.10;99.90;;;;;;8250579;28;20190;-86
2022/08/06 08:13:39;;;;;;;8.73;6.95;;;15.90;99.90;;;;;;8247531;28;20162;-85
2022/08/06 08:17:39;;;;;;;8.95;6.97;;;16.10;99.90;;;;;;8275883;28;20042;-86
2022/08/06 08:21:40;;;;;;;7.70;6.90;;;16.40;99.90;;;;;;8247741;28;20508;-86
2022/08/06 08:25:41;;;;;;;10.00;7.20;;;16.40;99.90;;;;;;8297973;22;20115;-82
2022/08/06 08:29:42;;;;;;;13.05;8.20;;;16.00;99.90;;;;;;8346590;28;20025;-82
2022/08/06 08:33:43;;;;;;;9.45;8.00;;;15.80;99.90;;;;;;8339380;28;20083;-82
2022/08/06 08:37:43;;;;;;;12.05;7.25;;;16.00;99.90;;;;;;8331188;28;20084;-82
2022/08/06 08:41:47;;;;;;;10.38;7.70;;;15.90;99.90;;;;;;8316329;28;20125;-80
2022/08/06 08:45:50;;;;;;;10.52;8.95;;;15.80;99.90;;;;;;8300352;28;20072;-81
2022/08/06 08:49:54;;;;;;;10.18;9.18;;;16.00;99.90;;;;;;8299343;28;20072;-81
2022/08/06 08:53:59;;;;;;;13.88;8.77;;;15.90;99.90;;;;;;8297672;28;20026;-82
2022/08/06 08:58:01;;;;;;;10.80;8.45;;;16.10;99.90;;;;;;8297577;28;20030;-81
2022/08/06 09:02:04;;;;;;;10.40;8.30;;;16.60;99.90;;;;;;8298918;28;20033;-82
2022/08/06 09:06:06;;;;;;;11.02;7.90;;;17.20;99.90;;;;;;8308022;28;20164;-82
2022/08/06 09:10:13;;;;;;;10.45;7.93;;;17.30;99.90;;;;;;8318822;28;20041;-82
2022/08/06 09:14:13;;;;;;;8.75;7.20;;;17.20;99.90;;;;;;8306162;28;20018;-82
2022/08/06 09:18:14;;;;;;;10.25;7.63;;;17.70;99.90;;;;;;8304829;28;20041;-83
2022/08/06 09:22:15;;;;;;;8.70;7.35;;;18.30;99.90;;;;;;8306978;28;20030;-82
2022/08/06 09:26:15;;;;;;;12.80;8.35;;;18.70;99.90;;;;;;8329483;28;20032;-82
2022/08/06 09:30:16;;;;;;;11.00;8.35;;;18.50;99.90;;;;;;8323904;28;20061;-82
2022/08/06 09:34:17;;;;;;;11.68;8.23;;;18.40;99.90;;;;;;8329521;28;20378;-82
2022/08/06 09:38:17;;;;;;;12.57;8.95;;;18.40;99.90;;;;;;8321823;28;20033;-83
2022/08/06 09:42:40;;;;;;;10.23;8.52;;;18.80;99.90;;;;;;8326327;28;20041;-83
2022/08/06 09:46:45;;;;;;;10.43;7.97;;;19.40;99.90;;;;;;8329868;28;20049;-83
2022/08/06 09:50:46;;;;;;;9.18;8.20;;;19.40;99.90;;;;;;8312769;28;20033;-83
2022/08/06 09:54:48;;;;;;;9.75;8.50;;;18.60;99.90;;;;;;8315378;28;20445;-84
2022/08/06 09:58:49;;;;;;;9.25;8.05;;;18.30;99.90;;;;;;8321141;28;20033;-84
2022/08/06 10:02:58;;;;;;;10.30;8.27;;;18.20;99.90;;;;;;8315534;28;20033;-84
2022/08/06 10:07:01;;;;;;;10.10;9.10;;;18.40;99.90;;;;;;8309714;28;20025;-85
2022/08/06 10:11:04;;;;;;;9.38;8.23;;;18.70;99.90;;;;;;8324158;28;20388;-84
2022/08/06 10:15:05;;;;;;;10.52;8.32;;;18.90;99.90;;;;;;8319250;28;20025;-85
2022/08/06 10:19:16;;;;;;;11.75;9.10;;;19.00;99.90;;;;;;8329545;28;20072;-83
2022/08/06 10:23:17;;;;;;;10.70;8.20;;;19.10;99.90;;;;;;8326658;28;20021;-84
2022/08/06 10:27:25;;;;;;;12.57;9.30;;;18.90;99.90;;;;;;8315801;28;20034;-84
2022/08/06 10:31:26;;;;;;;10.32;9.30;;;19.10;99.90;;;;;;8305947;28;20037;-85
2022/08/06 10:35:28;;;;;;;10.00;8.73;;;19.60;99.90;;;;;;8329186;28;20048;-85
2022/08/06 10:39:33;;;;;;;10.70;8.30;;;19.70;99.90;;;;;;8324685;28;20036;-85
2022/08/06 10:43:38;;;;;;;11.90;8.70;;;19.90;99.90;;;;;;8321635;28;20060;-84
2022/08/06 10:47:45;;;;;;;13.25;8.68;;;19.70;99.90;;;;;;8314961;28;20104;-81
2022/08/06 10:51:47;;;;;;;11.25;9.07;;;19.80;99.90;;;;;;8330275;28;20401;-84
2022/08/06 10:55:48;;;;;;;11.07;9.35;;;20.10;99.90;;;;;;8321286;28;20362;-85
2022/08/06 10:59:49;;;;;;;10.18;8.77;;;20.10;99.90;;;;;;8318077;28;20030;-85
2022/08/06 11:04:23;;;;;;;10.57;9.13;;;19.90;99.90;;;;;;8320192;28;20029;-82
2022/08/06 11:08:57;;;;;;;10.32;9.23;;;19.70;99.90;;;;;;8306465;28;20053;-84
2022/08/06 11:13:26;;;;;;;11.75;9.20;;;19.90;99.90;;;;;;8308962;28;20486;-84
2022/08/06 11:17:45;;;;;;;9.75;8.65;;;19.40;99.90;;;;;;8321630;28;20025;-84
2022/08/06 11:21:48;;;;;;;9.30;8.30;;;19.50;99.90;;;;;;8313525;28;20026;-84
2022/08/06 11:25:51;;;;;;;8.93;8.02;;;19.90;99.90;;;;;;8326702;28;20537;-84
2022/08/06 11:30:11;;;;;;;9.48;8.48;;;20.70;99.90;;;;;;8322778;28;20080;-85
2022/08/06 11:34:14;;;;;;;11.63;8.85;;;20.60;99.90;;;;;;8306207;28;20638;-84
2022/08/06 11:38:47;;;;;;;10.00;8.63;;;20.20;99.90;;;;;;8315768;28;20045;-84
2022/08/06 11:42:47;;;;;;;10.57;8.77;;;20.10;99.90;;;;;;8317484;28;20021;-85
2022/08/06 11:46:49;;;;;;;10.98;8.52;;;19.90;99.90;;;;;;8320392;28;20031;-84
2022/08/06 11:50:50;;;;;;;10.27;8.65;;;19.90;99.90;;;;;;8310588;28;20026;-84
2022/08/06 11:54:50;;;;;;;11.50;8.20;;;20.10;99.90;;;;;;8313715;28;20022;-83
2022/08/06 11:59:12;;;;;;;9.82;8.32;;;20.30;99.90;;;;;;8320434;28;20508;-83
2022/08/06 12:03:32;;;;;;;10.50;8.80;;;20.50;99.90;;;;;;8325918;28;20022;-83
2022/08/06 12:07:36;;;;;;;11.18;8.80;;;20.40;99.90;;;;;;8326067;28;20025;-84
2022/08/06 12:11:37;;;;;;;10.02;8.77;;;20.30;99.90;;;;;;8321464;28;20032;-83
2022/08/06 12:15:38;;;;;;;8.95;8.05;;;20.40;99.90;;;;;;8334122;28;20029;-83
2022/08/06 12:19:43;;;;;;;10.23;9.18;;;20.80;99.90;;;;;;8334974;28;20030;-84
2022/08/06 12:23:48;;;;;;;10.63;8.63;;;20.90;99.90;;;;;;8330404;28;20108;-83
2022/08/06 12:27:48;;;;;;;10.13;8.73;;;20.50;99.90;;;;;;8323637;28;20112;-84
2022/08/06 12:31:49;;;;;;;9.85;8.38;;;20.60;99.90;;;;;;8324355;28;20052;-84
2022/08/06 12:35:52;;;;;;;11.50;8.95;;;20.80;99.90;;;;;;8323329;28;20025;-84
2022/08/06 12:44:13;;;;;;;10.15;8.27;;;21.00;99.90;;;;;;8310556;28;20041;-83
2022/08/06 12:48:15;;;;;;;10.90;8.52;;;21.50;99.90;;;;;;8330171;28;20031;-84
2022/08/06 12:52:18;;;;;;;8.40;7.50;;;22.20;99.90;;;;;;8323651;28;20029;-83
2022/08/06 12:56:22;;;;;;;9.60;8.27;;;22.70;99.90;;;;;;8320270;28;20025;-84
2022/08/06 13:00:23;;;;;;;9.18;7.68;;;23.00;99.90;;;;;;8327837;28;20036;-84
2022/08/06 13:04:24;;;;;;;9.15;8.15;;;23.00;99.90;;;;;;8321077;28;20029;-84
2022/08/06 13:08:26;;;;;;;9.82;8.05;;;23.00;99.90;;;;;;8331486;28;20040;-83
2022/08/06 13:12:26;;;;;;;10.65;8.40;;;22.20;99.90;;;;;;8330210;28;20293;-84
2022/08/06 13:16:37;;;;;;;8.80;7.90;;;21.70;99.90;;;;;;8326435;28;20029;-83
2022/08/06 13:20:39;;;;;;;10.35;8.00;;;21.60;99.90;;;;;;8319821;28;20029;-84
2022/08/06 13:24:40;;;;;;;8.68;7.88;;;21.60;99.90;;;;;;8308776;28;20026;-84
2022/08/06 13:29:06;;;;;;;9.38;7.82;;;21.40;99.90;;;;;;8315387;28;20112;-83
2022/08/06 13:33:13;;;;;;;11.40;9.07;;;21.90;99.90;;;;;;8313557;28;20018;-83
2022/08/06 13:37:14;;;;;;;9.35;8.35;;;22.30;99.90;;;;;;8309314;28;20040;-84
2022/08/06 13:41:24;;;;;;;10.60;7.78;;;23.40;99.90;;;;;;8318798;28;20033;-84
2022/08/06 13:45:27;;;;;;;8.68;7.40;;;23.90;99.90;;;;;;8324883;28;20029;-81
2022/08/06 13:49:28;;;;;;;8.68;7.78;;;23.80;99.90;;;;;;8325477;28;20564;-84
2022/08/06 13:53:28;;;;;;;9.60;7.75;;;24.30;99.90;;;;;;8318109;28;20033;-83
2022/08/06 13:57:35;;;;;;;9.23;6.97;;;24.40;99.90;;;;;;8309840;28;20041;-81
2022/08/06 14:01:35;;;;;;;7.97;7.25;;;24.20;99.90;;;;;;8321754;28;20036;-84
2022/08/06 14:05:36;;;;;;;8.85;7.95;;;24.10;99.90;;;;;;8313754;28;20022;-84
2022/08/06 14:09:36;;;;;;;13.65;10.68;;;23.30;99.90;;;;;;8314609;28;20595;-84
2022/08/06 14:13:37;;;;;;;10.02;7.97;;;23.30;99.90;;;;;;8310107;28;20025;-83
2022/08/06 14:17:37;;;;;;;9.30;8.20;;;23.40;99.90;;;;;;8316243;28;20497;-83
2022/08/06 14:21:38;;;;;;;7.95;7.03;;;24.20;99.90;;;;;;8332505;28;20037;-83
2022/08/06 14:29:42;;;;;;;9.93;7.25;;;24.00;99.90;;;;;;8126942;28;20110;-83
2022/08/06 14:33:43;;;;;;;8.48;7.57;;;22.80;99.90;;;;;;8124626;28;20046;-83
2022/08/06 14:37:43;;;;;;;8.52;7.10;;;22.00;99.90;;;;;;8237136;28;20034;-83
2022/08/06 14:46:03;;;;;;;9.57;6.97;;;22.80;99.90;;;;;;8274853;28;20109;-83
2022/08/06 14:50:04;;;;;;;9.20;6.38;;;23.00;99.90;;;;;;8272737;28;20030;-83
2022/08/06 14:54:05;;;;;;;9.52;6.93;;;24.10;99.90;;;;;;8282589;28;20122;-83
2022/08/06 14:58:05;;;;;;;7.30;6.60;;;24.10;99.90;;;;;;8268666;28;20645;-83
2022/08/06 15:02:07;;;;;;;7.13;6.40;;;24.60;99.90;;;;;;8269270;28;20030;-83
2022/08/06 15:06:07;;;;;;;7.43;5.75;;;25.00;99.90;;;;;;8272303;28;20041;-83
2022/08/06 15:10:09;;;;;;;9.52;6.30;;;24.80;99.90;;;;;;8276456;28;20386;-83
2022/08/06 15:14:10;;;;;;;6.55;5.95;;;24.80;99.90;;;;;;8270922;28;20084;-82
2022/08/06 15:18:10;;;;;;;6.13;5.28;;;24.80;99.90;;;;;;8279215;28;20038;-82
2022/08/06 15:22:12;;;;;;;7.68;5.60;;;26.50;99.90;;;;;;8283901;28;20030;-82
2022/08/06 15:26:13;;;;;;;7.28;6.05;;;25.10;99.90;;;;;;8271268;28;20525;-82
2022/08/06 15:30:14;;;;;;;8.00;6.53;;;24.10;99.90;;;;;;8268445;28;20113;-82
2022/08/06 15:34:16;;;;;;;8.00;6.10;;;23.90;99.90;;;;;;8278547;28;20105;-82
2022/08/06 15:38:16;;;;;;;7.97;6.25;;;23.90;99.90;;;;;;8264251;28;20031;-82
2022/08/06 15:42:17;;;;;;;8.18;5.97;;;24.10;99.90;;;;;;8265376;28;20056;-79
2022/08/06 15:46:19;;;;;;;8.50;6.38;;;24.10;99.90;;;;;;8270804;28;20026;-79
2022/08/06 15:50:20;;;;;;;7.57;6.75;;;23.70;99.90;;;;;;8268275;28;20026;-79
2022/08/06 15:54:20;;;;;;;7.78;7.00;;;23.20;99.90;;;;;;8266612;28;20117;-79
2022/08/06 15:58:21;;;;;;;8.02;6.60;;;22.90;99.90;;;;;;8273031;28;20045;-79
2022/08/06 16:02:22;;;;;;;8.68;6.55;;;22.60;99.90;;;;;;8265920;28;20033;-79
2022/08/06 16:06:22;;;;;;;7.90;7.10;;;22.60;99.90;;;;;;8266549;28;20397;-80
2022/08/06 16:10:24;;;;;;;10.55;7.22;;;22.20;99.90;;;;;;8265125;28;20040;-79
2022/08/06 16:14:25;;;;;;;10.57;7.38;;;21.30;99.90;;;;;;8264143;28;20080;-79
2022/08/06 16:18:29;;;;;;;9.65;7.25;;;21.00;99.90;;;;;;8276864;28;20061;-79
2022/08/06 16:22:30;;;;;;;10.90;6.80;;;21.00;99.90;;;;;;8270782;28;20022;-79
2022/08/06 16:26:31;;;;;;;10.02;7.22;;;21.10;99.90;;;;;;8265518;28;20042;-80
2022/08/06 16:30:32;;;;;;;9.13;7.55;;;21.20;99.90;;;;;;8265336;28;20034;-79
2022/08/06 16:34:33;;;;;;;9.88;7.50;;;21.00;99.90;;;;;;8268997;28;20041;-79
2022/08/06 16:38:33;;;;;;;9.27;8.00;;;20.80;99.90;;;;;;8267914;28;20030;-79
2022/08/06 16:42:34;;;;;;;9.18;7.20;;;20.90;99.90;;;;;;8269685;28;20574;-79
2022/08/06 16:46:34;;;;;;;9.75;8.75;;;20.80;99.90;;;;;;8268702;28;20117;-80
2022/08/06 16:50:38;;;;;;;11.68;8.13;;;20.80;99.90;;;;;;8265205;28;20374;-80
2022/08/06 16:54:38;;;;;;;8.57;7.57;;;20.80;99.90;;;;;;8267770;28;20076;-80
2022/08/06 16:58:39;;;;;;;10.35;7.20;;;21.30;99.90;;;;;;8269267;28;20482;-79
2022/08/06 17:02:40;;;;;;;8.60;6.93;;;21.60;99.90;;;;;;8264412;28;20026;-80
2022/08/06 17:06:40;;;;;;;9.75;7.88;;;21.90;99.90;;;;;;8267703;28;20100;-79
2022/08/06 17:10:41;;;;;;;10.05;7.50;;;22.00;99.90;;;;;;8263412;28;20034;-80
2022/08/06 17:14:42;;;;;;;10.18;9.15;;;21.80;99.90;;;;;;8264106;28;20026;-79
2022/08/06 17:18:42;;;;;;;10.95;9.48;;;21.80;99.90;;;;;;8266567;28;20026;-80
2022/08/06 17:22:44;;;;;;;10.30;9.18;;;21.50;99.90;;;;;;8265802;28;20481;-79
2022/08/06 17:26:45;;;;;;;11.98;9.77;;;21.30;99.90;;;;;;8271974;28;20030;-79
2022/08/06 17:30:46;;;;;;;11.20;9.15;;;21.10;99.90;;;;;;8269416;28;20022;-79
2022/08/06 17:34:46;;;;;;;12.35;9.50;;;20.80;99.90;;;;;;8262562;28;20037;-79
2022/08/06 17:38:47;;;;;;;12.00;10.02;;;20.50;99.90;;;;;;8264138;28;20482;-79
2022/08/06 17:42:48;;;;;;;11.27;10.18;;;20.20;99.90;;;;;;8264084;28;20019;-79
2022/08/06 17:46:48;;;;;;;12.57;10.00;;;19.80;99.90;;;;;;8262981;28;20125;-79
2022/08/06 17:50:49;;;;;;;11.38;9.73;;;19.40;99.90;;;;;;8263031;28;20037;-79
2022/08/06 17:54:51;;;;;;;11.63;10.13;;;19.30;99.90;;;;;;8261367;28;20439;-80
2022/08/06 17:58:51;;;;;;;11.75;10.55;;;19.10;99.90;;;;;;8265946;28;20513;-80
2022/08/06 18:02:52;;;;;;;14.27;10.48;;;18.90;99.90;;;;;;8263146;28;20030;-80
2022/08/06 18:06:52;;;;;;;13.93;10.82;;;18.70;99.90;;;;;;8269643;28;20034;-79
2022/08/06 18:10:54;;;;;;;12.10;10.90;;;18.60;99.90;;;;;;8261015;28;20502;-79
2022/08/06 18:14:54;;;;;;;13.20;10.88;;;18.40;99.90;;;;;;8257442;28;20038;-80
2022/08/06 18:18:55;;;;;;;11.93;10.57;;;18.30;99.90;;;;;;8262108;28;20044;-79
2022/08/06 18:22:56;;;;;;;12.88;11.00;;;18.30;99.90;;;;;;8270029;28;20044;-79
2022/08/06 18:26:57;;;;;;;12.88;11.43;;;18.40;99.90;;;;;;8260035;28;20691;-79
2022/08/06 18:30:58;;;;;;;16.08;11.60;;;18.50;99.90;;;;;;8259100;28;20034;-79
2022/08/06 18:34:59;;;;;;;15.00;12.68;;;18.50;99.90;;;;;;8264674;28;20031;-80
2022/08/06 18:39:00;;;;;;;15.93;12.60;;;18.40;99.90;;;;;;8265096;28;20026;-79
2022/08/06 18:43:02;;;;;;;14.25;12.23;;;18.30;99.90;;;;;;8274080;28;20035;-79
2022/08/06 18:47:03;;;;;;;14.07;12.35;;;18.30;99.90;;;;;;8257909;28;20022;-79
2022/08/06 18:51:05;;;;;;;15.25;12.88;;;18.10;99.90;;;;;;8257805;28;20117;-79
2022/08/06 18:55:07;;;;;;;21.00;15.02;;;17.80;99.90;;;;;;8259008;28;20030;-78
2022/08/06 18:59:07;;;;;;;16.27;13.30;;;17.70;99.90;;;;;;8257860;28;20608;-79
2022/08/06 19:03:08;;;;;;;16.98;14.50;;;17.60;99.90;;;;;;8262819;28;20040;-79
2022/08/06 19:07:12;;;;;;;16.85;14.70;;;17.50;99.90;;;;;;8263463;28;20933;-80
2022/08/06 19:11:13;;;;;;;16.05;14.05;;;17.40;99.90;;;;;;8266248;28;20030;-79
2022/08/06 19:15:13;;;;;;;17.45;14.13;;;17.40;99.90;;;;;;8262096;28;20634;-79
2022/08/06 19:19:14;;;;;;;17.40;14.55;;;17.40;99.90;;;;;;8262562;28;20068;-79
2022/08/06 19:23:15;;;;;;;15.02;13.43;;;17.50;99.90;;;;;;8265763;28;20085;-79
2022/08/06 19:27:16;;;;;;;16.73;13.75;;;17.50;99.90;;;;;;8267985;28;20586;-80
2022/08/06 19:31:20;;;;;;;20.58;13.57;;;17.50;99.90;;;;;;8265353;28;20156;-79
2022/08/06 19:35:20;;;;;;;15.43;13.88;;;17.50;99.90;;;;;;8266229;28;20113;-79
2022/08/06 19:39:22;;;;;;;17.13;14.98;;;17.00;99.90;;;;;;8263560;28;20045;-80
2022/08/06 19:43:23;;;;;;;15.80;14.15;;;16.70;99.90;;;;;;8267047;28;20555;-80
2022/08/06 19:47:24;;;;;;;18.40;15.00;;;16.40;99.90;;;;;;8268931;28;20026;-80
2022/08/06 19:51:27;;;;;;;17.30;15.43;;;16.20;99.90;;;;;;8270378;28;20037;-79
2022/08/06 19:55:27;;;;;;;17.00;15.07;;;16.00;99.90;;;;;;8262603;28;20085;-79
2022/08/06 19:59:28;;;;;;;18.00;15.13;;;16.10;99.90;;;;;;8277216;28;20038;-79
2022/08/06 20:03:28;;;;;;;18.55;16.15;;;16.20;99.90;;;;;;8273775;28;20030;-80
2022/08/06 20:07:29;;;;;;;21.08;16.15;;;15.70;99.90;;;;;;8270210;28;20053;-80
2022/08/06 20:11:30;;;;;;;18.98;16.05;;;15.80;99.90;;;;;;8266015;28;20137;-80
2022/08/06 20:15:30;;;;;;;19.67;16.88;;;15.30;99.90;;;;;;8269834;28;21223;-80
2022/08/06 20:19:31;;;;;;;20.75;17.17;;;15.20;99.90;;;;;;8279294;28;20069;-80
2022/08/06 20:23:32;;;;;;;22.30;18.13;;;15.00;99.90;;;;;;8278821;28;20497;-80
2022/08/06 20:27:32;;;;;;;21.40;17.42;;;14.90;99.90;;;;;;8747180;22;20183;-82
2022/08/06 20:31:33;;;;;;;20.23;16.45;;;14.80;99.90;;;;;;8357585;28;20753;-81
2022/08/06 20:35:33;;;;;;;22.13;18.38;;;14.80;99.90;;;;;;8358778;28;20032;-81
2022/08/06 20:39:34;;;;;;;24.80;19.92;;;14.60;99.90;;;;;;8337907;28;20035;-81
2022/08/06 20:43:35;;;;;;;22.80;19.05;;;14.60;99.90;;;;;;8345217;28;20026;-81
2022/08/06 20:47:35;;;;;;;23.88;19.85;;;14.70;99.90;;;;;;8339819;28;20021;-81
2022/08/06 20:51:36;;;;;;;22.73;18.15;;;14.80;99.90;;;;;;8344382;28;20501;-81
2022/08/06 20:55:37;;;;;;;21.38;16.95;;;15.20;99.90;;;;;;8346512;28;20026;-81
2022/08/06 20:59:38;;;;;;;22.15;17.55;;;15.30;99.90;;;;;;8343624;28;20481;-82
2022/08/06 21:03:38;;;;;;;20.13;17.15;;;15.30;99.90;;;;;;8347927;28;20032;-81
2022/08/06 21:07:41;;;;;;;20.42;18.13;;;15.30;99.90;;;;;;8331513;28;20116;-81
2022/08/06 21:11:41;;;;;;;20.95;17.38;;;15.30;99.90;;;;;;8345612;28;20021;-80